Terminal Aerodrome Forecast
Issued by NWS

Home | Current Version | Previous Version | Text Only | Print | Product List | Glossary On
Versions: 1 2 3 4 5 6 7 8 9 10 11 12 13
000
FTUS45 KRIW 292339
TAFLND
TAF
KLND 292339Z 3000/3024 23008G15KT P6SM FEW110 BKN200
     FM300300 23015G23KT P6SM SCT110 BKN200
     FM300900 24020G30KT P6SM SCT110 BKN200
     FM301500 24010G20KT P6SM FEW100 BKN200
     FM302100 24025KT P6SM VCTS FEW080CB BKN120=

USA.gov is the U.S. government's official web portal to all federal, state and local government web resources and services.